createdAt,value
2022-09-15T00:01:56.990Z,14.08
2022-09-15T00:04:25.847Z,14.07
2022-09-15T00:06:56.398Z,14.06
2022-09-15T00:09:25.265Z,14.05
2022-09-15T00:11:54.114Z,14.05
2022-09-15T00:14:23.186Z,14.05
2022-09-15T00:16:52.204Z,14.04
2022-09-15T00:19:21.204Z,14.04
2022-09-15T00:21:50.208Z,14.03
2022-09-15T00:24:20.435Z,14.04
2022-09-15T00:26:49.262Z,14.03
2022-09-15T00:29:18.470Z,14.04
2022-09-15T00:31:47.341Z,14.02
2022-09-15T00:34:16.358Z,14.00
2022-09-15T00:36:45.437Z,14.01
2022-09-15T00:39:14.882Z,13.99
2022-09-15T00:41:45.289Z,13.99
2022-09-15T00:44:53.541Z,13.98
2022-09-15T00:47:25.600Z,13.98
2022-09-15T00:50:01.568Z,13.98
2022-09-15T00:52:40.127Z,13.97
2022-09-15T00:55:13.676Z,13.97
2022-09-15T00:57:49.110Z,13.96
2022-09-15T01:00:20.428Z,13.95
2022-09-15T01:02:50.481Z,13.95
2022-09-15T01:05:22.041Z,13.93
2022-09-15T01:07:55.738Z,13.92
2022-09-15T01:10:28.653Z,13.89
2022-09-15T01:13:02.873Z,13.87
2022-09-15T01:15:49.781Z,13.83
2022-09-15T01:18:30.189Z,13.80
2022-09-15T01:21:29.566Z,13.75
2022-09-15T01:24:40.893Z,13.69
2022-09-15T01:27:41.187Z,13.65
2022-09-15T01:30:15.432Z,13.59
2022-09-15T01:33:10.992Z,13.54
2022-09-15T01:35:52.730Z,13.49
2022-09-15T01:38:34.298Z,13.44
2022-09-15T01:41:08.519Z,13.40
2022-09-15T01:43:45.065Z,13.36
2022-09-15T01:46:18.018Z,13.32
2022-09-15T01:48:48.460Z,13.29
2022-09-15T01:51:17.926Z,13.28
2022-09-15T01:53:47.380Z,13.25
2022-09-15T01:56:16.583Z,13.23
2022-09-15T01:58:45.566Z,13.21
2022-09-15T02:01:20.293Z,13.19
2022-09-15T02:03:55.457Z,13.17
2022-09-15T02:06:31.735Z,13.13
2022-09-15T02:09:04.110Z,13.12
2022-09-15T02:11:36.281Z,13.09
2022-09-15T02:14:12.854Z,13.06
2022-09-15T02:16:47.766Z,13.02
2022-09-15T02:19:21.582Z,12.99
2022-09-15T02:21:58.372Z,12.92
2022-09-15T02:24:32.557Z,12.90
2022-09-15T02:27:04.866Z,12.85
2022-09-15T02:29:37.311Z,12.81
2022-09-15T02:32:10.362Z,12.76
2022-09-15T02:34:42.597Z,12.72
2022-09-15T02:37:12.686Z,12.66
2022-09-15T02:39:46.669Z,12.61
2022-09-15T02:42:25.319Z,12.57
2022-09-15T02:44:54.449Z,12.50
2022-09-15T02:47:25.587Z,12.45
2022-09-15T02:49:54.460Z,12.41
2022-09-15T02:52:23.614Z,12.36
2022-09-15T02:54:52.602Z,12.31
2022-09-15T02:57:21.440Z,12.26
2022-09-15T03:00:22.547Z,12.22
2022-09-15T03:02:54.516Z,12.17
2022-09-15T03:05:25.270Z,12.14
2022-09-15T03:07:54.740Z,12.10
2022-09-15T03:10:24.402Z,12.04
2022-09-15T03:12:55.723Z,12.01
2022-09-15T03:15:27.035Z,11.97
2022-09-15T03:17:57.410Z,11.92
2022-09-15T03:20:28.717Z,11.92
2022-09-15T03:22:57.925Z,11.88
2022-09-15T03:25:27.901Z,11.86
2022-09-15T03:27:56.817Z,11.86
2022-09-15T03:30:26.348Z,11.85
2022-09-15T03:32:56.527Z,11.84
2022-09-15T03:35:25.476Z,11.84
2022-09-15T03:37:55.181Z,11.85
2022-09-15T03:40:23.903Z,11.86
2022-09-15T03:42:53.190Z,11.86
2022-09-15T03:45:22.243Z,11.86
2022-09-15T03:47:51.231Z,11.86
2022-09-15T03:50:21.658Z,11.87
2022-09-15T03:52:50.670Z,11.88
2022-09-15T03:55:19.689Z,11.90
2022-09-15T03:57:48.522Z,11.95
2022-09-15T04:00:17.600Z,11.97
2022-09-15T04:02:46.736Z,12.00
2022-09-15T04:05:15.925Z,12.05
2022-09-15T04:07:46.305Z,12.08
2022-09-15T04:10:15.215Z,12.11
2022-09-15T04:12:44.362Z,12.13
2022-09-15T04:15:13.406Z,12.18
2022-09-15T04:17:42.207Z,12.24
2022-09-15T04:20:11.842Z,12.28
2022-09-15T04:22:40.909Z,12.31
2022-09-15T04:25:12.123Z,12.36
2022-09-15T04:27:41.115Z,12.43
2022-09-15T04:30:11.111Z,12.48
2022-09-15T04:32:40.135Z,12.53
2022-09-15T04:35:09.921Z,12.59
2022-09-15T04:37:39.129Z,12.61
2022-09-15T04:40:11.454Z,12.64
2022-09-15T04:42:40.560Z,12.66
2022-09-15T04:45:10.678Z,12.70
2022-09-15T04:47:39.668Z,12.72
2022-09-15T04:50:09.059Z,12.74
2022-09-15T04:52:37.948Z,12.74
2022-09-15T04:55:07.416Z,12.74
2022-09-15T04:57:37.844Z,12.75
2022-09-15T05:00:08.655Z,12.76
2022-09-15T05:02:37.776Z,12.78
2022-09-15T05:05:07.437Z,12.79
2022-09-15T05:07:36.265Z,12.83
2022-09-15T05:10:05.846Z,12.87
2022-09-15T05:12:35.030Z,12.90
2022-09-15T05:15:06.035Z,12.94
2022-09-15T05:17:36.442Z,12.97
2022-09-15T05:20:06.164Z,13.05
2022-09-15T05:22:39.537Z,13.10
2022-09-15T05:25:11.199Z,13.14
2022-09-15T05:27:40.508Z,13.18
2022-09-15T05:33:01.511Z,13.26
2022-09-15T05:35:30.571Z,13.30
2022-09-15T05:37:59.411Z,13.37
2022-09-15T05:40:28.570Z,13.43
2022-09-15T05:42:57.756Z,13.46
2022-09-15T05:45:27.984Z,13.49
2022-09-15T05:47:57.439Z,13.53
2022-09-15T05:50:26.652Z,13.59
2022-09-15T05:52:55.530Z,13.65
2022-09-15T05:55:24.846Z,13.69
2022-09-15T05:57:53.759Z,13.71
2022-09-15T06:00:22.738Z,13.74
2022-09-15T06:02:53.363Z,13.77
2022-09-15T06:05:22.288Z,13.83
2022-09-15T06:07:53.231Z,13.86
2022-09-15T06:10:24.991Z,13.87
2022-09-15T06:12:58.148Z,13.90
2022-09-15T06:15:27.636Z,13.94
2022-09-15T06:17:58.467Z,13.98
2022-09-15T06:20:27.980Z,14.00
2022-09-15T06:22:57.915Z,14.04
2022-09-15T06:25:28.701Z,14.07
2022-09-15T06:27:58.084Z,14.09
2022-09-15T06:30:27.155Z,14.14
2022-09-15T06:32:57.366Z,14.16
2022-09-15T06:35:26.204Z,14.22
2022-09-15T06:37:55.265Z,14.26
2022-09-15T06:40:24.457Z,14.29
2022-09-15T06:42:57.534Z,14.33
2022-09-15T06:45:27.139Z,14.36
2022-09-15T06:48:20.227Z,14.37
2022-09-15T06:50:53.898Z,14.41
2022-09-15T06:53:23.012Z,14.44
2022-09-15T06:55:51.879Z,14.48
2022-09-15T06:58:20.818Z,14.50
2022-09-15T07:00:50.115Z,14.54
2022-09-15T07:03:20.809Z,14.59
2022-09-15T07:05:49.808Z,14.60
2022-09-15T07:08:18.673Z,14.66
2022-09-15T07:10:48.448Z,14.69
2022-09-15T07:13:17.299Z,14.71
2022-09-15T07:15:52.325Z,14.77
2022-09-15T07:18:22.868Z,14.80
2022-09-15T07:20:51.817Z,14.87
2022-09-15T07:23:21.014Z,14.91
2022-09-15T07:25:50.033Z,15.00
2022-09-15T07:28:19.197Z,15.08
2022-09-15T07:30:52.033Z,15.19
2022-09-15T07:33:22.469Z,15.27
2022-09-15T07:35:51.378Z,15.32
2022-09-15T07:38:20.218Z,15.39
2022-09-15T07:40:49.377Z,15.46
2022-09-15T07:43:18.518Z,15.51
2022-09-15T07:45:47.841Z,15.55
2022-09-15T07:48:16.921Z,15.61
2022-09-15T07:50:49.564Z,15.67
2022-09-15T07:53:19.094Z,15.72
2022-09-15T07:55:52.563Z,15.78
2022-09-15T07:58:21.660Z,15.84
2022-09-15T08:00:50.624Z,15.90
2022-09-15T08:03:19.560Z,15.93
2022-09-15T08:05:50.050Z,16.01
2022-09-15T08:08:19.058Z,16.06
2022-09-15T08:10:47.936Z,16.10
2022-09-15T08:13:17.056Z,16.14
2022-09-15T08:15:46.300Z,16.18
2022-09-15T08:18:15.688Z,16.23
2022-09-15T08:20:44.932Z,16.25
2022-09-15T08:23:15.147Z,16.25
2022-09-15T08:25:44.290Z,16.25
2022-09-15T08:28:13.344Z,16.28
2022-09-15T08:30:42.271Z,16.29
2022-09-15T08:33:11.156Z,16.31
2022-09-15T08:35:40.192Z,16.33
2022-09-15T08:38:09.249Z,16.34
2022-09-15T08:40:44.490Z,16.37
2022-09-15T08:43:20.095Z,16.37
2022-09-15T08:45:54.420Z,16.39
2022-09-15T08:48:31.045Z,16.44
2022-09-15T08:51:05.029Z,16.46
2022-09-15T08:53:38.986Z,16.48
2022-09-15T08:56:17.117Z,16.47
2022-09-15T08:58:47.214Z,16.48
2022-09-15T09:01:30.053Z,16.49
2022-09-15T09:04:24.412Z,16.52
2022-09-15T09:07:04.598Z,16.54
2022-09-15T09:09:42.817Z,16.59
2022-09-15T09:12:41.114Z,16.66
2022-09-15T09:15:32.639Z,16.73
2022-09-15T09:18:18.906Z,16.79
2022-09-15T09:20:56.520Z,16.87
2022-09-15T09:23:28.662Z,16.93
2022-09-15T09:25:58.793Z,16.96
2022-09-15T09:28:33.491Z,17.02
2022-09-15T09:31:08.113Z,17.07
2022-09-15T09:33:47.511Z,17.14
2022-09-15T09:36:17.299Z,17.20
2022-09-15T09:38:47.873Z,17.24
2022-09-15T09:41:19.751Z,17.31
2022-09-15T09:43:51.254Z,17.39
2022-09-15T09:46:22.240Z,17.46
2022-09-15T09:48:57.449Z,17.53
2022-09-15T09:51:51.931Z,17.61
2022-09-15T09:54:22.582Z,17.65
2022-09-15T09:56:52.642Z,17.69
2022-09-15T09:59:42.274Z,17.68
2022-09-15T10:02:22.862Z,17.69
2022-09-15T10:04:53.743Z,17.70
2022-09-15T10:07:26.699Z,17.68
2022-09-15T10:09:58.228Z,17.66
2022-09-15T10:12:32.126Z,17.64
2022-09-15T10:15:06.407Z,17.64
2022-09-15T10:17:43.907Z,17.62
2022-09-15T10:20:32.478Z,17.59
2022-09-15T10:23:07.331Z,17.59
2022-09-15T10:26:00.141Z,17.62
2022-09-15T10:28:28.906Z,17.65
2022-09-15T10:31:03.455Z,17.66
2022-09-15T10:33:35.096Z,17.69
2022-09-15T10:36:07.344Z,17.71
2022-09-15T10:38:42.256Z,17.74
2022-09-15T10:41:21.893Z,17.75
2022-09-15T10:44:10.924Z,17.80
2022-09-15T10:46:50.379Z,17.85
2022-09-15T10:49:35.017Z,17.91
2022-09-15T10:52:15.015Z,18.00
2022-09-15T10:55:31.843Z,18.06
2022-09-15T10:58:31.325Z,18.10
2022-09-15T11:01:17.761Z,18.14
2022-09-15T11:04:09.310Z,18.17
2022-09-15T11:06:48.443Z,18.19
2022-09-15T11:09:25.832Z,18.19
2022-09-15T11:12:12.054Z,18.20
2022-09-15T11:14:52.691Z,18.20
2022-09-15T11:17:43.912Z,18.15
2022-09-15T11:20:39.587Z,18.08
2022-09-15T11:23:15.740Z,18.04
2022-09-15T11:25:48.301Z,18.02
2022-09-15T11:28:23.762Z,17.99
2022-09-15T11:31:00.811Z,17.97
2022-09-15T11:33:35.827Z,17.93
2022-09-15T11:36:10.820Z,17.87
2022-09-15T11:38:48.008Z,17.83
2022-09-15T11:41:25.156Z,17.79
2022-09-15T11:44:08.623Z,17.70
2022-09-15T11:46:58.614Z,17.67
2022-09-15T11:49:32.552Z,17.64
2022-09-15T11:52:10.037Z,17.58
2022-09-15T11:54:46.560Z,17.55
2022-09-15T11:57:21.524Z,17.50
2022-09-15T11:59:58.984Z,17.46
2022-09-15T12:02:34.175Z,17.42
2022-09-15T12:05:11.471Z,17.41
2022-09-15T12:07:47.906Z,17.41
2022-09-15T12:10:21.904Z,17.43
2022-09-15T12:12:52.561Z,17.44
2022-09-15T12:15:27.377Z,17.46
2022-09-15T12:18:27.331Z,17.51
2022-09-15T12:21:04.182Z,17.57
2022-09-15T12:23:40.702Z,17.59
2022-09-15T12:26:18.892Z,17.58
2022-09-15T12:29:02.220Z,17.57
2022-09-15T12:31:39.943Z,17.57
2022-09-15T12:34:37.246Z,17.56
2022-09-15T12:37:14.192Z,17.53
2022-09-15T12:39:45.746Z,17.54
2022-09-15T12:42:20.852Z,17.55
2022-09-15T12:44:55.968Z,17.58
2022-09-15T12:47:32.863Z,17.62
2022-09-15T12:50:10.128Z,17.67
2022-09-15T12:52:49.337Z,17.72
2022-09-15T12:55:23.909Z,17.76
2022-09-15T12:57:58.166Z,17.80
2022-09-15T13:00:36.043Z,17.86
2022-09-15T13:03:07.916Z,17.90
2022-09-15T13:05:55.120Z,17.96
2022-09-15T13:08:53.029Z,18.00
2022-09-15T13:11:34.608Z,18.04
2022-09-15T13:14:16.320Z,18.08
2022-09-15T13:16:53.098Z,18.12
2022-09-15T13:19:25.633Z,18.19
2022-09-15T13:22:02.579Z,18.25
2022-09-15T13:24:45.196Z,18.29
2022-09-15T13:27:19.628Z,18.35
2022-09-15T13:29:53.727Z,18.43
2022-09-15T13:32:39.829Z,18.59
2022-09-15T13:35:48.185Z,18.86
2022-09-15T13:38:52.415Z,19.11
2022-09-15T13:41:40.201Z,19.21
2022-09-15T13:44:51.977Z,19.21
2022-09-15T13:47:39.722Z,19.11
2022-09-15T13:50:15.966Z,19.00
2022-09-15T13:53:04.185Z,18.91
2022-09-15T13:55:38.595Z,18.80
2022-09-15T14:01:07.614Z,18.64
2022-09-15T14:03:43.415Z,18.58
2022-09-15T14:06:20.537Z,18.51
2022-09-15T14:08:54.098Z,18.43
2022-09-15T14:11:29.815Z,18.35
2022-09-15T14:14:00.619Z,18.27
2022-09-15T14:16:36.502Z,18.15
2022-09-15T14:19:24.836Z,18.05
2022-09-15T14:21:58.311Z,17.97
2022-09-15T14:24:30.072Z,17.90
2022-09-15T14:27:03.465Z,17.96
2022-09-15T14:29:32.655Z,18.17
2022-09-15T14:32:04.002Z,18.61
2022-09-15T14:34:37.253Z,19.18
2022-09-15T14:37:08.898Z,19.81
2022-09-15T14:39:40.287Z,20.33
2022-09-15T14:42:21.805Z,20.86
2022-09-15T14:47:44.193Z,21.70
2022-09-15T14:50:17.537Z,22.02
2022-09-15T14:52:51.266Z,22.28
2022-09-15T14:55:25.755Z,22.54
2022-09-15T14:58:00.854Z,22.75
2022-09-15T15:00:34.931Z,22.98
2022-09-15T15:03:19.648Z,23.15
2022-09-15T15:06:02.873Z,23.34
2022-09-15T15:08:42.118Z,23.55
2022-09-15T15:11:15.251Z,23.63
2022-09-15T15:13:47.396Z,23.76
2022-09-15T15:16:22.274Z,23.86
2022-09-15T15:18:56.191Z,23.93
2022-09-15T15:21:43.330Z,24.04
2022-09-15T15:24:24.154Z,24.15
2022-09-15T15:26:53.407Z,24.28
2022-09-15T15:29:43.976Z,24.37
2022-09-15T15:32:16.106Z,24.44
2022-09-15T15:34:56.034Z,24.54
2022-09-15T15:37:30.116Z,24.64
2022-09-15T15:40:02.203Z,24.79
2022-09-15T15:42:31.555Z,24.88
2022-09-15T15:45:05.270Z,24.87
2022-09-15T15:47:38.171Z,24.90
2022-09-15T15:50:20.813Z,24.83
2022-09-15T15:52:51.465Z,24.76
2022-09-15T15:55:21.693Z,24.65
2022-09-15T15:57:52.443Z,24.56
2022-09-15T16:00:24.466Z,24.49
2022-09-15T16:02:54.724Z,24.30
2022-09-15T16:05:29.326Z,24.00
2022-09-15T16:08:01.911Z,23.63
2022-09-15T16:10:37.761Z,23.15
2022-09-15T16:13:07.229Z,22.70
2022-09-15T16:15:36.460Z,22.22
2022-09-15T16:18:06.189Z,21.77
2022-09-15T16:20:37.049Z,21.37
2022-09-15T16:23:06.597Z,20.96
2022-09-15T16:25:39.904Z,20.58
2022-09-15T16:28:09.101Z,20.23
2022-09-15T16:30:38.032Z,19.90
2022-09-15T16:33:06.808Z,19.58
2022-09-15T16:35:40.456Z,19.30
2022-09-15T16:38:10.146Z,18.99
2022-09-15T16:40:39.493Z,18.72
2022-09-15T16:43:14.850Z,18.46
2022-09-15T16:45:45.270Z,18.24
2022-09-15T16:48:14.602Z,18.06
2022-09-15T16:51:01.201Z,17.87
2022-09-15T16:53:34.428Z,17.67
2022-09-15T16:56:03.770Z,17.53
2022-09-15T16:58:32.450Z,17.39
2022-09-15T17:01:01.645Z,17.29
2022-09-15T17:03:30.866Z,17.11
2022-09-15T17:06:04.534Z,16.95
2022-09-15T17:08:34.321Z,16.80
2022-09-15T17:11:05.181Z,16.64
2022-09-15T17:13:35.400Z,16.47
2022-09-15T17:16:04.957Z,16.36
2022-09-15T17:18:34.048Z,16.22
2022-09-15T17:21:04.816Z,16.11
2022-09-15T17:23:37.980Z,16.00
2022-09-15T17:26:11.512Z,15.85
2022-09-15T17:28:41.156Z,15.74
2022-09-15T17:31:15.762Z,15.60
2022-09-15T17:33:45.308Z,15.48
2022-09-15T17:36:16.623Z,15.38
2022-09-15T17:38:46.014Z,15.29
2022-09-15T17:41:16.306Z,15.21
2022-09-15T17:43:45.668Z,15.14
2022-09-15T17:46:15.109Z,15.06
2022-09-15T17:48:44.177Z,14.96
2022-09-15T17:51:18.334Z,14.87
2022-09-15T17:53:47.854Z,14.77
2022-09-15T17:56:17.446Z,14.72
2022-09-15T17:58:47.287Z,14.66
2022-09-15T18:01:16.859Z,14.58
2022-09-15T18:03:46.890Z,14.52
2022-09-15T18:06:18.233Z,14.42
2022-09-15T18:08:47.368Z,14.35
2022-09-15T18:11:16.830Z,14.27
2022-09-15T18:13:46.098Z,14.21
2022-09-15T18:16:15.389Z,14.15
2022-09-15T18:18:44.886Z,14.11
2022-09-15T18:21:26.994Z,14.05
2022-09-15T18:23:56.523Z,13.99
2022-09-15T18:26:26.845Z,13.94
2022-09-15T18:28:58.463Z,13.88
2022-09-15T18:31:27.661Z,13.82
2022-09-15T18:33:56.902Z,13.77
2022-09-15T18:36:27.976Z,13.72
2022-09-15T18:38:57.715Z,13.67
2022-09-15T18:41:27.898Z,13.61
2022-09-15T18:43:57.803Z,13.56
2022-09-15T18:46:26.724Z,13.51
2022-09-15T18:48:55.624Z,13.46
2022-09-15T18:51:40.880Z,13.41
2022-09-15T18:54:15.813Z,13.34
2022-09-15T18:56:46.500Z,13.29
2022-09-15T18:59:17.802Z,13.22
2022-09-15T19:01:48.559Z,13.17
2022-09-15T19:04:17.805Z,13.12
2022-09-15T19:06:46.843Z,13.07
2022-09-15T19:09:17.769Z,13.01
2022-09-15T19:11:47.835Z,12.95
2022-09-15T19:14:19.002Z,12.89
2022-09-15T19:16:57.508Z,12.82
2022-09-15T19:19:27.986Z,12.77
2022-09-15T19:21:56.877Z,12.74
2022-09-15T19:24:33.525Z,12.68
2022-09-15T19:27:03.906Z,12.63
2022-09-15T19:29:35.794Z,12.59
2022-09-15T19:32:06.715Z,12.52
2022-09-15T19:34:36.608Z,12.46
2022-09-15T19:37:10.292Z,12.42
2022-09-15T19:39:43.197Z,12.36
2022-09-15T19:42:13.003Z,12.31
2022-09-15T19:44:43.778Z,12.27
2022-09-15T19:47:13.283Z,12.22
2022-09-15T19:49:42.254Z,12.21
2022-09-15T19:52:12.894Z,12.17
2022-09-15T19:54:43.802Z,12.17
2022-09-15T19:57:13.516Z,12.13
2022-09-15T19:59:44.905Z,12.11
2022-09-15T20:02:14.046Z,12.10
2022-09-15T20:04:43.304Z,12.07
2022-09-15T20:07:12.606Z,12.05
2022-09-15T20:09:43.337Z,12.04
2022-09-15T20:12:12.272Z,12.03
2022-09-15T20:14:42.208Z,12.00
2022-09-15T20:17:11.464Z,11.97
2022-09-15T20:19:40.346Z,11.97
2022-09-15T20:22:09.402Z,11.98
2022-09-15T20:24:38.596Z,11.98
2022-09-15T20:27:09.164Z,11.99
2022-09-15T20:29:38.714Z,12.01
2022-09-15T20:32:08.127Z,12.04
2022-09-15T20:34:37.032Z,12.07
2022-09-15T20:37:05.909Z,12.15
2022-09-15T20:39:35.370Z,12.21
2022-09-15T20:42:04.389Z,12.25
2022-09-15T20:44:34.610Z,12.28
2022-09-15T20:47:04.042Z,12.34
2022-09-15T20:49:33.009Z,12.39
2022-09-15T20:52:02.007Z,12.42
2022-09-15T20:54:31.207Z,12.45
2022-09-15T20:57:00.267Z,12.48
2022-09-15T20:59:29.209Z,12.51
2022-09-15T21:01:59.712Z,12.52
2022-09-15T21:04:28.667Z,12.53
2022-09-15T21:06:57.809Z,12.57
2022-09-15T21:09:27.005Z,12.57
2022-09-15T21:11:56.033Z,12.58
2022-09-15T21:14:25.017Z,12.60
2022-09-15T21:16:54.446Z,12.62
2022-09-15T21:19:24.684Z,12.64
2022-09-15T21:21:54.640Z,12.66
2022-09-15T21:24:23.993Z,12.68
2022-09-15T21:27:10.774Z,12.72
2022-09-15T21:29:39.919Z,12.73
2022-09-15T21:32:09.299Z,12.72
2022-09-15T21:34:39.356Z,12.74
2022-09-15T21:37:08.408Z,12.76
2022-09-15T21:39:37.225Z,12.76
2022-09-15T21:42:06.671Z,12.77
2022-09-15T21:44:35.809Z,12.78
2022-09-15T21:47:04.716Z,12.78
2022-09-15T21:49:33.681Z,12.77
2022-09-15T21:52:04.331Z,12.78
2022-09-15T21:54:33.543Z,12.77
2022-09-15T21:57:02.495Z,12.77
2022-09-15T21:59:31.583Z,12.77
2022-09-15T22:02:00.902Z,12.77
2022-09-15T22:04:29.795Z,12.77
2022-09-15T22:06:58.986Z,12.75
2022-09-15T22:09:29.302Z,12.75
2022-09-15T22:11:58.137Z,12.73
2022-09-15T22:14:27.279Z,12.71
2022-09-15T22:16:56.442Z,12.70
2022-09-15T22:19:25.752Z,12.67
2022-09-15T22:21:54.602Z,12.65
2022-09-15T22:24:23.658Z,12.59
2022-09-15T22:26:53.845Z,12.57
2022-09-15T22:29:22.954Z,12.55
2022-09-15T22:31:51.932Z,12.52
2022-09-15T22:34:20.885Z,12.53
2022-09-15T22:36:50.054Z,12.51
2022-09-15T22:39:18.904Z,12.49
2022-09-15T22:41:47.913Z,12.46
2022-09-15T22:44:22.092Z,12.45
2022-09-15T22:46:51.444Z,12.43
2022-09-15T22:49:20.334Z,12.38
2022-09-15T22:51:49.206Z,12.38
2022-09-15T22:54:18.182Z,12.39
2022-09-15T22:56:47.681Z,12.40
2022-09-15T22:59:17.058Z,12.38
2022-09-15T23:01:48.657Z,12.39
2022-09-15T23:04:18.158Z,12.37
2022-09-15T23:06:48.952Z,12.39
2022-09-15T23:09:18.404Z,12.41
2022-09-15T23:11:47.301Z,12.40
2022-09-15T23:14:18.038Z,12.41
2022-09-15T23:16:48.601Z,12.41
2022-09-15T23:19:17.728Z,12.44
2022-09-15T23:21:47.179Z,12.45
2022-09-15T23:24:17.126Z,12.45
2022-09-15T23:26:46.311Z,12.45
2022-09-15T23:29:15.295Z,12.45
2022-09-15T23:31:44.485Z,12.46
2022-09-15T23:34:14.709Z,12.46
2022-09-15T23:36:43.700Z,12.43
2022-09-15T23:39:12.768Z,12.43
2022-09-15T23:41:41.935Z,12.42
2022-09-15T23:44:10.971Z,12.40
2022-09-15T23:46:40.098Z,12.37
2022-09-15T23:49:09.320Z,12.35
2022-09-15T23:51:39.531Z,12.32
2022-09-15T23:54:08.571Z,12.29
2022-09-15T23:56:37.408Z,12.28
2022-09-15T23:59:06.382Z,12.25
